createdAt,value
2023-05-07T00:00:49.608Z,57.49
2023-05-07T00:03:21.596Z,57.57
2023-05-07T00:05:54.121Z,57.13
2023-05-07T00:08:25.833Z,57.20
2023-05-07T00:10:57.665Z,57.11
2023-05-07T00:13:32.038Z,56.91
2023-05-07T00:16:04.130Z,57.10
2023-05-07T00:18:35.673Z,56.86
2023-05-07T00:21:07.696Z,56.85
2023-05-07T00:23:39.119Z,56.86
2023-05-07T00:26:10.656Z,57.01
2023-05-07T00:28:40.562Z,56.90
2023-05-07T00:31:12.089Z,56.86
2023-05-07T00:33:43.652Z,56.83
2023-05-07T00:36:15.073Z,56.94
2023-05-07T00:38:46.449Z,56.96
2023-05-07T00:41:18.046Z,56.83
2023-05-07T00:43:49.891Z,56.64
2023-05-07T00:46:21.576Z,56.58
2023-05-07T00:48:51.404Z,56.57
2023-05-07T00:51:22.903Z,56.78
2023-05-07T00:53:54.350Z,56.50
2023-05-07T00:56:24.504Z,56.26
2023-05-07T00:58:55.950Z,56.36
2023-05-07T01:01:27.826Z,56.29
2023-05-07T01:03:59.271Z,56.21
2023-05-07T01:06:29.360Z,56.24
2023-05-07T01:09:01.467Z,56.33
2023-05-07T01:11:31.277Z,56.31
2023-05-07T01:14:02.651Z,56.44
2023-05-07T01:16:34.366Z,56.43
2023-05-07T01:19:05.972Z,56.45
2023-05-07T01:21:36.466Z,56.95
2023-05-07T01:24:08.950Z,57.04
2023-05-07T01:26:41.022Z,57.46
2023-05-07T01:29:13.168Z,57.31
2023-05-07T01:31:44.908Z,57.26
2023-05-07T01:34:18.547Z,57.32
2023-05-07T01:36:50.055Z,57.48
2023-05-07T01:39:21.689Z,57.59
2023-05-07T01:41:53.039Z,57.76
2023-05-07T01:44:24.770Z,57.64
2023-05-07T01:46:56.291Z,57.75
2023-05-07T01:49:27.673Z,57.65
2023-05-07T01:51:59.698Z,57.69
2023-05-07T01:54:31.773Z,57.72
2023-05-07T01:57:03.749Z,57.73
2023-05-07T01:59:35.419Z,57.71
2023-05-07T02:02:07.361Z,57.85
2023-05-07T02:04:39.826Z,57.91
2023-05-07T02:07:12.098Z,57.92
2023-05-07T02:09:43.604Z,57.77
2023-05-07T02:12:15.157Z,58.14
2023-05-07T02:14:46.851Z,58.50
2023-05-07T02:17:18.959Z,58.52
2023-05-07T02:19:50.361Z,58.45
2023-05-07T02:22:22.032Z,58.65
2023-05-07T02:24:53.854Z,58.90
2023-05-07T02:27:25.795Z,58.99
2023-05-07T02:29:57.516Z,59.29
2023-05-07T02:32:27.599Z,59.30
2023-05-07T02:34:58.977Z,59.23
2023-05-07T02:37:30.942Z,59.51
2023-05-07T02:40:02.444Z,59.79
2023-05-07T02:42:34.447Z,60.09
2023-05-07T02:45:06.732Z,59.89
2023-05-07T02:47:38.545Z,60.08
2023-05-07T02:50:11.971Z,60.22
2023-05-07T02:52:43.597Z,60.18
2023-05-07T02:55:15.321Z,60.16
2023-05-07T02:57:45.127Z,60.27
2023-05-07T03:00:19.072Z,60.65
2023-05-07T03:03:13.782Z,60.49
2023-05-07T03:05:45.197Z,60.65
2023-05-07T03:08:16.708Z,60.58
2023-05-07T03:10:48.159Z,60.18
2023-05-07T03:13:19.594Z,60.19
2023-05-07T03:15:52.142Z,60.29
2023-05-07T03:18:24.046Z,60.34
2023-05-07T03:20:55.716Z,60.28
2023-05-07T03:23:25.714Z,60.16
2023-05-07T03:25:57.133Z,60.27
2023-05-07T03:28:28.816Z,59.84
2023-05-07T03:31:04.342Z,59.61
2023-05-07T03:33:36.994Z,59.36
2023-05-07T03:36:08.965Z,59.34
2023-05-07T03:38:40.775Z,59.20
2023-05-07T03:41:12.673Z,58.96
2023-05-07T03:43:44.891Z,58.41
2023-05-07T03:46:16.591Z,58.05
2023-05-07T03:48:46.478Z,58.43
2023-05-07T03:51:18.530Z,58.24
2023-05-07T03:53:50.311Z,57.17
2023-05-07T03:56:20.094Z,57.18
2023-05-07T03:58:51.858Z,56.95
2023-05-07T04:01:21.534Z,57.19
2023-05-07T04:03:53.359Z,57.42
2023-05-07T04:06:25.481Z,56.83
2023-05-07T04:08:57.263Z,56.09
2023-05-07T04:11:29.021Z,56.00
2023-05-07T04:14:00.658Z,55.65
2023-05-07T04:16:32.308Z,55.85
2023-05-07T04:19:03.989Z,55.66
2023-05-07T04:21:33.871Z,55.25
2023-05-07T04:24:07.073Z,55.37
2023-05-07T04:26:38.461Z,55.28
2023-05-07T04:29:10.005Z,55.09
2023-05-07T04:31:41.556Z,54.56
2023-05-07T04:34:13.398Z,54.60
2023-05-07T04:36:45.248Z,54.63
2023-05-07T04:39:17.918Z,54.28
2023-05-07T04:41:50.870Z,53.42
2023-05-07T04:44:22.202Z,53.69
2023-05-07T04:46:53.622Z,54.08
2023-05-07T04:49:25.087Z,53.38
2023-05-07T04:51:56.900Z,52.91
2023-05-07T04:54:27.815Z,52.49
2023-05-07T04:56:59.344Z,52.60
2023-05-07T04:59:31.147Z,52.70
2023-05-07T05:02:02.758Z,52.86
2023-05-07T05:04:34.924Z,52.70
2023-05-07T05:07:06.500Z,52.86
2023-05-07T05:09:37.831Z,52.22
2023-05-07T05:12:10.479Z,51.80
2023-05-07T05:14:42.845Z,51.14
2023-05-07T05:17:14.849Z,50.99
2023-05-07T05:19:46.226Z,51.19
2023-05-07T05:22:17.738Z,50.77
2023-05-07T05:24:49.575Z,50.61
2023-05-07T05:27:21.581Z,50.45
2023-05-07T05:29:53.053Z,50.50
2023-05-07T05:32:25.475Z,51.01
2023-05-07T05:34:59.320Z,50.79
2023-05-07T05:37:29.129Z,50.67
2023-05-07T05:40:01.121Z,49.33
2023-05-07T05:42:34.040Z,48.95
2023-05-07T05:45:03.724Z,49.44
2023-05-07T05:47:35.662Z,49.22
2023-05-07T05:50:08.979Z,49.18
2023-05-07T05:52:42.108Z,48.94
2023-05-07T05:55:14.014Z,48.39
2023-05-07T05:57:46.127Z,48.43
2023-05-07T06:00:18.137Z,48.52
2023-05-07T06:02:52.301Z,48.56
2023-05-07T06:05:26.494Z,48.26
2023-05-07T06:07:59.770Z,47.76
2023-05-07T06:10:32.829Z,47.85
2023-05-07T06:13:05.166Z,47.35
2023-05-07T06:15:37.072Z,46.75
2023-05-07T06:18:12.420Z,47.14
2023-05-07T06:20:42.261Z,47.24
2023-05-07T06:23:18.153Z,46.82
2023-05-07T06:25:52.391Z,46.92
2023-05-07T06:28:25.812Z,47.02
2023-05-07T06:30:57.203Z,46.73
2023-05-07T06:33:28.577Z,45.79
2023-05-07T06:36:00.160Z,46.19
2023-05-07T06:38:32.300Z,45.83
2023-05-07T06:41:04.177Z,44.90
2023-05-07T06:43:35.675Z,45.04
2023-05-07T06:46:33.783Z,44.55
2023-05-07T06:49:05.320Z,45.00
2023-05-07T06:51:35.324Z,44.44
2023-05-07T06:54:08.097Z,43.96
2023-05-07T06:56:41.081Z,43.75
2023-05-07T06:59:11.278Z,44.07
2023-05-07T07:01:44.383Z,44.26
2023-05-07T07:04:16.339Z,44.32
2023-05-07T07:06:48.467Z,44.27
2023-05-07T07:09:21.116Z,44.17
2023-05-07T07:11:54.303Z,43.33
2023-05-07T07:14:26.496Z,43.92
2023-05-07T07:16:58.549Z,43.57
2023-05-07T07:19:30.079Z,43.53
2023-05-07T07:22:02.197Z,43.31
2023-05-07T07:24:33.888Z,43.13
2023-05-07T07:27:07.812Z,43.25
2023-05-07T07:29:37.756Z,42.97
2023-05-07T07:32:09.501Z,42.81
2023-05-07T07:34:39.376Z,42.47
2023-05-07T07:37:12.087Z,42.33
2023-05-07T07:39:42.624Z,41.96
2023-05-07T07:42:14.202Z,42.10
2023-05-07T07:44:44.052Z,41.79
2023-05-07T07:47:16.314Z,41.84
2023-05-07T07:49:47.984Z,41.80
2023-05-07T07:52:19.654Z,42.64
2023-05-07T07:54:51.379Z,41.62
2023-05-07T07:57:21.217Z,40.92
2023-05-07T07:59:53.290Z,41.24
2023-05-07T08:02:25.701Z,41.66
2023-05-07T08:04:58.109Z,41.20
2023-05-07T08:07:28.027Z,41.76
2023-05-07T08:09:59.967Z,41.66
2023-05-07T08:12:31.680Z,41.04
2023-05-07T08:15:04.108Z,40.33
2023-05-07T08:17:35.635Z,40.67
2023-05-07T08:20:10.440Z,40.82
2023-05-07T08:22:42.243Z,40.41
2023-05-07T08:25:14.569Z,39.71
2023-05-07T08:27:45.941Z,39.84
2023-05-07T08:30:18.750Z,39.69
2023-05-07T08:32:50.539Z,39.72
2023-05-07T08:35:20.375Z,39.48
2023-05-07T08:37:51.932Z,39.22
2023-05-07T08:40:23.956Z,39.27
2023-05-07T08:42:56.253Z,39.66
2023-05-07T08:45:29.162Z,38.60
2023-05-07T08:48:01.151Z,38.37
2023-05-07T08:50:35.385Z,38.23
2023-05-07T08:53:08.366Z,38.49
2023-05-07T08:55:40.389Z,37.93
2023-05-07T08:58:12.373Z,38.31
2023-05-07T09:00:44.474Z,37.51
2023-05-07T09:03:17.312Z,37.21
2023-05-07T09:05:51.364Z,37.27
2023-05-07T09:08:25.790Z,36.17
2023-05-07T09:10:58.198Z,36.91
2023-05-07T09:13:29.925Z,36.04
2023-05-07T09:16:02.443Z,36.12
2023-05-07T09:18:34.306Z,36.60
2023-05-07T09:21:04.497Z,36.30
2023-05-07T09:23:36.205Z,35.53
2023-05-07T09:26:12.816Z,35.81
2023-05-07T09:28:45.258Z,36.20
2023-05-07T09:31:20.349Z,36.69
2023-05-07T09:33:52.948Z,35.19
2023-05-07T09:36:25.574Z,35.00
2023-05-07T09:38:57.852Z,35.01
2023-05-07T09:41:29.414Z,33.95
2023-05-07T09:44:15.267Z,34.60
2023-05-07T09:46:51.553Z,34.54
2023-05-07T09:49:27.496Z,35.00
2023-05-07T09:52:04.899Z,35.04
2023-05-07T09:54:39.141Z,33.96
2023-05-07T09:57:11.960Z,33.72
2023-05-07T09:59:44.683Z,33.59
2023-05-07T10:02:17.882Z,33.25
2023-05-07T10:04:55.506Z,33.28
2023-05-07T10:07:30.711Z,33.00
2023-05-07T10:10:05.252Z,32.84
2023-05-07T10:12:41.636Z,32.19
2023-05-07T10:15:18.196Z,32.31
2023-05-07T10:17:52.552Z,32.32
2023-05-07T10:20:24.673Z,32.47
2023-05-07T10:22:56.430Z,32.61
2023-05-07T10:25:33.037Z,32.69
2023-05-07T10:28:09.990Z,31.96
2023-05-07T10:30:47.605Z,31.76
2023-05-07T10:33:19.828Z,32.01
2023-05-07T10:35:52.320Z,31.50
2023-05-07T10:38:22.340Z,31.28
2023-05-07T10:40:54.426Z,31.18
2023-05-07T10:43:26.191Z,31.57
2023-05-07T10:46:21.256Z,31.60
2023-05-07T10:49:17.413Z,31.94
2023-05-07T10:52:16.073Z,32.24
2023-05-07T10:55:26.566Z,31.05
2023-05-07T10:58:32.607Z,30.61
2023-05-07T11:01:16.155Z,30.27
2023-05-07T11:07:41.804Z,30.40
2023-05-07T11:10:18.099Z,30.34
2023-05-07T11:13:01.479Z,30.14
2023-05-07T11:15:48.014Z,30.12
2023-05-07T11:18:33.363Z,30.52
2023-05-07T11:21:06.896Z,29.89
2023-05-07T11:24:02.746Z,30.17
2023-05-07T11:26:50.467Z,31.09
2023-05-07T11:29:23.509Z,29.88
2023-05-07T11:32:01.454Z,29.40
2023-05-07T11:34:36.413Z,29.12
2023-05-07T11:37:07.790Z,28.84
2023-05-07T11:39:47.601Z,29.28
2023-05-07T11:42:32.221Z,28.62
2023-05-07T11:45:06.911Z,28.44
2023-05-07T11:47:38.623Z,28.43
2023-05-07T11:50:13.159Z,28.16
2023-05-07T11:52:52.638Z,28.96
2023-05-07T11:55:30.129Z,28.70
2023-05-07T11:58:03.432Z,28.61
2023-05-07T12:00:41.841Z,29.24
2023-05-07T12:03:15.239Z,28.58
2023-05-07T12:05:51.288Z,28.41
2023-05-07T12:08:23.165Z,28.32
2023-05-07T12:10:54.665Z,27.76
2023-05-07T12:13:26.796Z,27.44
2023-05-07T12:15:59.217Z,27.62
2023-05-07T12:18:30.558Z,28.19
2023-05-07T12:21:02.007Z,28.12
2023-05-07T12:23:32.292Z,28.25
2023-05-07T12:26:05.725Z,28.25
2023-05-07T12:28:41.760Z,28.44
2023-05-07T12:31:13.533Z,27.07
2023-05-07T12:33:45.126Z,27.39
2023-05-07T12:36:17.030Z,27.85
2023-05-07T12:38:48.540Z,28.16
2023-05-07T12:41:20.293Z,27.78
2023-05-07T12:43:52.074Z,27.38
2023-05-07T12:46:24.941Z,27.06
2023-05-07T12:48:56.665Z,26.72
2023-05-07T12:51:28.325Z,27.25
2023-05-07T12:54:01.406Z,27.72
2023-05-07T12:56:34.534Z,27.77
2023-05-07T12:59:06.350Z,27.38
2023-05-07T13:01:37.954Z,27.59
2023-05-07T13:04:07.870Z,26.78
2023-05-07T13:06:39.278Z,27.22
2023-05-07T13:09:10.754Z,27.13
2023-05-07T13:11:42.134Z,26.81
2023-05-07T13:14:14.936Z,26.54
2023-05-07T13:16:46.539Z,26.53
2023-05-07T13:19:16.435Z,26.59
2023-05-07T13:21:48.076Z,26.53
2023-05-07T13:24:19.632Z,26.57
2023-05-07T13:26:51.620Z,26.73
2023-05-07T13:29:26.629Z,26.83
2023-05-07T13:31:58.423Z,26.80
2023-05-07T13:34:30.412Z,26.78
2023-05-07T13:37:02.197Z,26.82
2023-05-07T13:39:33.869Z,26.83
2023-05-07T13:42:05.503Z,27.24
2023-05-07T13:44:35.300Z,26.61
2023-05-07T13:47:07.146Z,26.15
2023-05-07T13:49:39.140Z,25.86
2023-05-07T13:52:10.741Z,25.93
2023-05-07T13:54:40.850Z,26.46
2023-05-07T13:57:12.532Z,26.79
2023-05-07T13:59:42.277Z,26.75
2023-05-07T14:02:13.806Z,26.77
2023-05-07T14:04:46.563Z,26.87
2023-05-07T14:07:18.103Z,26.54
2023-05-07T14:09:51.899Z,26.53
2023-05-07T14:12:23.495Z,26.92
2023-05-07T14:14:54.954Z,27.30
2023-05-07T14:17:28.254Z,26.91
2023-05-07T14:19:59.922Z,26.34
2023-05-07T14:22:31.392Z,26.13
2023-05-07T14:25:06.803Z,26.28
2023-05-07T14:27:48.376Z,26.68
2023-05-07T14:30:25.668Z,26.62
2023-05-07T14:32:57.160Z,25.97
2023-05-07T14:35:28.769Z,26.11
2023-05-07T14:38:00.134Z,26.10
2023-05-07T14:40:32.775Z,26.13
2023-05-07T14:43:05.810Z,26.69
2023-05-07T14:45:38.185Z,26.79
2023-05-07T14:48:12.750Z,26.50
2023-05-07T14:50:44.565Z,26.83
2023-05-07T14:53:14.412Z,26.92
2023-05-07T14:55:46.015Z,26.54
2023-05-07T14:58:18.092Z,26.92
2023-05-07T15:00:50.136Z,27.48
2023-05-07T15:03:22.067Z,27.61
2023-05-07T15:05:54.384Z,27.64
2023-05-07T15:08:26.421Z,27.70
2023-05-07T15:10:59.940Z,27.52
2023-05-07T15:13:31.637Z,27.43
2023-05-07T15:16:03.787Z,27.46
2023-05-07T15:18:35.900Z,27.50
2023-05-07T15:21:07.782Z,27.64
2023-05-07T15:23:40.392Z,27.88
2023-05-07T15:26:10.475Z,28.25
2023-05-07T15:28:43.579Z,28.06
2023-05-07T15:31:15.237Z,27.96
2023-05-07T15:33:45.985Z,28.27
2023-05-07T15:36:17.835Z,28.34
2023-05-07T15:38:49.676Z,28.71
2023-05-07T15:41:21.955Z,28.63
2023-05-07T15:43:54.702Z,28.76
2023-05-07T15:46:29.357Z,28.69
2023-05-07T15:49:02.743Z,28.67
2023-05-07T15:51:38.598Z,29.01
2023-05-07T15:54:10.882Z,29.01
2023-05-07T15:56:43.565Z,28.92
2023-05-07T15:59:17.757Z,29.09
2023-05-07T16:01:53.200Z,29.31
2023-05-07T16:04:25.491Z,29.23
2023-05-07T16:06:59.115Z,29.38
2023-05-07T16:09:32.215Z,29.35
2023-05-07T16:12:06.852Z,29.34
2023-05-07T16:14:42.084Z,29.11
2023-05-07T16:17:17.217Z,29.48
2023-05-07T16:19:49.930Z,29.65
2023-05-07T16:22:24.972Z,29.66
2023-05-07T16:24:57.135Z,29.90
2023-05-07T16:27:29.133Z,29.87
2023-05-07T16:29:59.923Z,30.03
2023-05-07T16:32:31.703Z,30.33
2023-05-07T16:35:04.212Z,30.53
2023-05-07T16:37:36.201Z,30.42
2023-05-07T16:40:09.397Z,30.76
2023-05-07T16:42:41.162Z,30.85
2023-05-07T16:45:12.861Z,30.89
2023-05-07T16:47:44.653Z,31.12
2023-05-07T16:50:14.829Z,31.22
2023-05-07T16:52:47.396Z,31.53
2023-05-07T16:55:22.342Z,31.70
2023-05-07T16:57:55.109Z,31.80
2023-05-07T17:00:27.831Z,31.91
2023-05-07T17:03:03.957Z,32.22
2023-05-07T17:05:35.614Z,32.17
2023-05-07T17:08:07.612Z,32.37
2023-05-07T17:10:39.098Z,32.36
2023-05-07T17:13:10.985Z,32.52
2023-05-07T17:15:43.819Z,32.37
2023-05-07T17:18:15.555Z,32.47
2023-05-07T17:20:47.664Z,32.52
2023-05-07T17:23:19.297Z,32.33
2023-05-07T17:25:49.125Z,32.38
2023-05-07T17:28:20.788Z,32.49
2023-05-07T17:30:50.483Z,32.41
2023-05-07T17:33:22.417Z,32.55
2023-05-07T17:35:56.196Z,32.53
2023-05-07T17:38:28.174Z,32.44
2023-05-07T17:41:00.257Z,32.44
2023-05-07T17:43:31.597Z,32.54
2023-05-07T17:46:03.499Z,32.43
2023-05-07T17:48:35.013Z,32.42
2023-05-07T17:51:06.932Z,32.48
2023-05-07T17:53:38.757Z,32.34
2023-05-07T17:56:08.520Z,32.38
2023-05-07T17:58:57.553Z,32.36
2023-05-07T18:01:33.951Z,32.25
2023-05-07T18:04:06.081Z,32.34
2023-05-07T18:06:39.136Z,32.44
2023-05-07T18:09:11.113Z,32.45
2023-05-07T18:11:43.794Z,32.46
2023-05-07T18:14:15.790Z,32.63
2023-05-07T18:16:47.895Z,32.74
2023-05-07T18:19:18.229Z,32.71
2023-05-07T18:21:49.768Z,33.09
2023-05-07T18:24:21.291Z,33.32
2023-05-07T18:26:52.738Z,33.49
2023-05-07T18:29:24.290Z,33.69
2023-05-07T18:31:58.463Z,33.91
2023-05-07T18:34:31.253Z,34.05
2023-05-07T18:37:02.934Z,34.28
2023-05-07T18:39:34.641Z,34.50
2023-05-07T18:42:05.566Z,34.81
2023-05-07T18:44:38.728Z,35.11
2023-05-07T18:47:10.381Z,35.32
2023-05-07T18:49:42.279Z,35.53
2023-05-07T18:52:12.018Z,35.74
2023-05-07T18:54:43.815Z,35.90
2023-05-07T18:57:15.540Z,35.72
2023-05-07T18:59:47.044Z,35.83
2023-05-07T19:02:19.431Z,35.91
2023-05-07T19:04:51.021Z,36.18
2023-05-07T19:07:21.026Z,36.30
2023-05-07T19:10:04.075Z,36.39
2023-05-07T19:12:36.993Z,36.53
2023-05-07T19:15:10.193Z,36.63
2023-05-07T19:17:41.938Z,36.86
2023-05-07T19:20:12.963Z,36.98
2023-05-07T19:22:44.560Z,37.39
2023-05-07T19:25:16.512Z,37.41
2023-05-07T19:27:48.476Z,37.64
2023-05-07T19:30:20.083Z,37.80
2023-05-07T19:32:51.869Z,37.81
2023-05-07T19:35:21.891Z,38.07
2023-05-07T19:37:53.252Z,38.09
2023-05-07T19:40:24.984Z,38.10
2023-05-07T19:42:56.351Z,38.14
2023-05-07T19:45:27.883Z,38.12
2023-05-07T19:47:59.314Z,38.14
2023-05-07T19:50:31.094Z,38.17
2023-05-07T19:53:02.539Z,38.11
2023-05-07T19:55:34.153Z,37.98
2023-05-07T19:58:05.544Z,38.07
2023-05-07T20:00:37.912Z,37.97
2023-05-07T20:03:09.259Z,37.79
2023-05-07T20:05:40.671Z,37.58
2023-05-07T20:08:12.450Z,37.46
2023-05-07T20:10:44.124Z,37.40
2023-05-07T20:13:15.932Z,37.42
2023-05-07T20:15:50.359Z,37.40
2023-05-07T20:18:21.848Z,37.59
2023-05-07T20:20:53.619Z,37.68
2023-05-07T20:23:23.591Z,37.79
2023-05-07T20:25:55.079Z,38.04
2023-05-07T20:28:26.565Z,38.10
2023-05-07T20:30:58.041Z,38.06
2023-05-07T20:33:29.593Z,38.23
2023-05-07T20:36:02.161Z,38.25
2023-05-07T20:38:34.061Z,38.27
2023-05-07T20:41:10.029Z,38.43
2023-05-07T20:43:42.046Z,38.32
2023-05-07T20:46:13.487Z,38.43
2023-05-07T20:48:45.139Z,38.38
2023-05-07T20:51:16.705Z,38.33
2023-05-07T20:53:47.985Z,38.50
2023-05-07T20:56:20.538Z,38.72
2023-05-07T20:58:53.565Z,38.87
2023-05-07T21:01:25.063Z,38.79
2023-05-07T21:03:55.233Z,39.01
2023-05-07T21:06:26.731Z,39.22
2023-05-07T21:08:58.185Z,39.35
2023-05-07T21:11:29.913Z,39.59
2023-05-07T21:14:01.511Z,39.82
2023-05-07T21:16:33.094Z,39.74
2023-05-07T21:19:04.637Z,39.80
2023-05-07T21:21:36.089Z,39.55
2023-05-07T21:24:09.311Z,39.36
2023-05-07T21:26:40.968Z,39.43
2023-05-07T21:29:12.482Z,39.50
2023-05-07T21:31:43.997Z,39.49
2023-05-07T21:34:15.467Z,39.73
2023-05-07T21:36:46.863Z,39.80
2023-05-07T21:39:18.626Z,40.01
2023-05-07T21:41:48.467Z,40.17
2023-05-07T21:44:19.986Z,40.55
2023-05-07T21:46:51.515Z,40.70
2023-05-07T21:49:23.155Z,40.95
2023-05-07T21:51:54.763Z,41.07
2023-05-07T21:54:26.252Z,41.17
2023-05-07T21:56:56.325Z,41.27
2023-05-07T21:59:27.826Z,41.38
2023-05-07T22:01:59.444Z,41.34
2023-05-07T22:04:29.231Z,41.41
2023-05-07T22:07:00.893Z,41.42
2023-05-07T22:09:30.696Z,41.51
2023-05-07T22:12:02.307Z,41.28
2023-05-07T22:14:33.940Z,41.21
2023-05-07T22:17:05.488Z,41.21
2023-05-07T22:19:36.988Z,41.08
2023-05-07T22:22:08.357Z,41.00
2023-05-07T22:24:39.828Z,40.88
2023-05-07T22:27:11.386Z,40.94
2023-05-07T22:29:42.930Z,40.81
2023-05-07T22:32:14.543Z,41.02
2023-05-07T22:34:44.432Z,40.94
2023-05-07T22:37:15.891Z,40.86
2023-05-07T22:39:47.369Z,40.94
2023-05-07T22:42:18.795Z,40.94
2023-05-07T22:44:51.691Z,41.05
2023-05-07T22:47:23.132Z,41.05
2023-05-07T22:49:54.743Z,40.89
2023-05-07T22:52:26.123Z,40.95
2023-05-07T22:54:57.544Z,40.93
2023-05-07T22:57:27.605Z,40.87
2023-05-07T22:59:59.130Z,40.95
2023-05-07T23:02:30.680Z,40.89
2023-05-07T23:05:03.433Z,40.76
2023-05-07T23:07:35.017Z,40.90
2023-05-07T23:10:07.450Z,40.71
2023-05-07T23:12:38.944Z,41.09
2023-05-07T23:15:12.014Z,41.24
2023-05-07T23:17:43.597Z,41.37
2023-05-07T23:20:16.228Z,41.41
2023-05-07T23:22:47.660Z,41.50
2023-05-07T23:25:19.465Z,41.59
2023-05-07T23:27:51.054Z,41.66
2023-05-07T23:30:21.313Z,41.72
2023-05-07T23:32:53.164Z,41.81
2023-05-07T23:35:25.270Z,41.86
2023-05-07T23:37:56.762Z,41.95
2023-05-07T23:40:28.399Z,42.07
2023-05-07T23:42:58.216Z,42.14
2023-05-07T23:45:29.723Z,42.01
2023-05-07T23:48:01.230Z,42.09
2023-05-07T23:50:33.132Z,42.20
2023-05-07T23:53:04.812Z,42.25
2023-05-07T23:55:34.671Z,42.16
2023-05-07T23:58:06.423Z,42.30
